Time;durP1;ratioP1;P1;durP2;ratioP2;P2;SDS_P1;SDS_P2;PMS_P1;PMS_P2;Temp;Humidity;BMP_temperature;BMP_pressure;BME280_temperature;BME280_humidity;BME280_pressure;Samples;Min_cycle;Max_cycle;Signal;HPM_P1;HPM_P2
2023/06/06 00:00:30;;;;;;;2.60;1.38;;;20.80;96.60;;;;;;6097339;23;20329;-87
2023/06/06 00:02:57;;;;;;;2.92;1.60;;;20.80;96.50;;;;;;6072448;23;20080;-85
2023/06/06 00:05:25;;;;;;;1.88;1.40;;;20.70;96.60;;;;;;6072374;23;20018;-86
2023/06/06 00:07:52;;;;;;;2.92;2.05;;;20.70;96.60;;;;;;6072780;23;20017;-86
2023/06/06 00:10:18;;;;;;;2.97;1.67;;;20.70;96.70;;;;;;6072134;23;20736;-86
2023/06/06 00:12:45;;;;;;;2.45;1.77;;;20.70;96.70;;;;;;6097991;23;19998;-86
2023/06/06 00:15:15;;;;;;;3.60;2.08;;;20.70;96.80;;;;;;6098287;23;20058;-88
2023/06/06 00:17:42;;;;;;;;;;;20.70;96.80;;;;;;6098845;23;20443;-85
2023/06/06 00:20:09;;;;;;;2.58;1.70;;;20.70;96.90;;;;;;6098034;23;20312;-86
2023/06/06 00:22:36;;;;;;;1.77;1.60;;;20.70;96.90;;;;;;6098210;23;20053;-87
2023/06/06 00:25:03;;;;;;;5.55;2.00;;;20.70;96.90;;;;;;6096642;23;20421;-86
2023/06/06 00:27:30;;;;;;;2.13;1.80;;;20.80;97.00;;;;;;6098096;23;20010;-86
2023/06/06 00:29:55;;;;;;;5.15;2.17;;;20.90;97.10;;;;;;6097456;23;20060;-85
2023/06/06 00:32:21;;;;;;;3.00;1.60;;;20.90;96.90;;;;;;6072505;23;20007;-86
2023/06/06 00:34:47;;;;;;;2.45;1.80;;;20.90;96.80;;;;;;6098209;23;20022;-88
2023/06/06 00:37:12;;;;;;;2.10;1.90;;;20.90;96.80;;;;;;6098448;23;20102;-88
2023/06/06 00:39:38;;;;;;;2.50;1.92;;;20.90;96.80;;;;;;6098015;23;20003;-88
2023/06/06 00:42:04;;;;;;;3.42;1.67;;;20.90;96.80;;;;;;6098364;23;20421;-88
2023/06/06 00:44:29;;;;;;;3.65;1.80;;;20.90;96.80;;;;;;6072528;23;20014;-89
2023/06/06 00:46:55;;;;;;;2.25;1.67;;;20.90;96.80;;;;;;6072681;23;20010;-87
2023/06/06 00:49:22;;;;;;;1.85;1.70;;;20.90;96.70;;;;;;6098327;23;20481;-87
2023/06/06 00:51:48;;;;;;;1.77;1.65;;;20.90;96.70;;;;;;6097964;23;20009;-88
2023/06/06 00:54:16;;;;;;;3.63;1.92;;;20.90;96.60;;;;;;6129433;23;20020;-86
2023/06/06 00:56:43;;;;;;;2.05;1.67;;;20.90;96.60;;;;;;6216403;23;20000;-87
2023/06/06 00:59:10;;;;;;;2.97;1.80;;;20.90;96.60;;;;;;6216376;23;20004;-87
2023/06/06 01:01:39;;;;;;;3.28;1.90;;;20.90;96.60;;;;;;6215988;23;20308;-87
2023/06/06 01:04:07;;;;;;;4.78;2.25;;;20.80;96.60;;;;;;6214708;23;20032;-87
2023/06/06 01:06:35;;;;;;;2.00;1.50;;;20.70;96.60;;;;;;6216647;23;20011;-86
2023/06/06 01:09:04;;;;;;;1.75;1.45;;;20.60;96.70;;;;;;6216479;23;20088;-87
2023/06/06 01:11:41;;;;;;;2.97;1.75;;;20.60;96.80;;;;;;6214495;23;20013;-88
2023/06/06 01:14:25;;;;;;;1.70;1.60;;;20.60;96.90;;;;;;6216370;23;20005;-86
2023/06/06 01:16:57;;;;;;;2.15;1.40;;;20.50;96.90;;;;;;6216284;23;20051;-86
2023/06/06 01:19:27;;;;;;;3.63;2.28;;;20.50;96.90;;;;;;6216224;23;20004;-86
2023/06/06 01:21:54;;;;;;;4.65;2.17;;;20.50;97.10;;;;;;6216003;23;20004;-87
2023/06/06 01:24:21;;;;;;;2.55;1.85;;;20.40;97.20;;;;;;6214896;23;20015;-88
2023/06/06 01:26:47;;;;;;;3.13;1.70;;;20.40;97.20;;;;;;6216511;23;20316;-88
2023/06/06 01:29:13;;;;;;;2.33;2.10;;;20.50;97.10;;;;;;6216608;23;20071;-88
2023/06/06 01:31:45;;;;;;;2.00;1.67;;;20.40;97.10;;;;;;6215969;23;20007;-85
2023/06/06 01:34:20;;;;;;;2.03;1.83;;;20.40;97.20;;;;;;6215168;23;20331;-84
2023/06/06 01:37:12;;;;;;;2.03;1.77;;;20.40;97.20;;;;;;6216265;23;20003;-85
2023/06/06 01:39:43;;;;;;;3.65;1.85;;;20.40;97.20;;;;;;6216122;23;20001;-85
2023/06/06 01:42:09;;;;;;;1.40;1.30;;;20.30;97.20;;;;;;6216203;23;20434;-85
2023/06/06 01:44:37;;;;;;;1.35;1.20;;;20.30;97.20;;;;;;6216277;23;20001;-85
2023/06/06 01:47:04;;;;;;;2.58;1.60;;;20.30;97.20;;;;;;6215894;23;20004;-84
2023/06/06 01:49:30;;;;;;;2.83;1.30;;;20.30;97.20;;;;;;6216513;23;20012;-85
2023/06/06 01:51:56;;;;;;;3.28;1.98;;;20.30;97.20;;;;;;6216195;23;20008;-85
2023/06/06 01:54:22;;;;;;;1.80;1.30;;;20.30;97.20;;;;;;6215967;23;20010;-85
2023/06/06 01:56:48;;;;;;;2.13;1.65;;;20.30;97.20;;;;;;6216050;23;20001;-84
2023/06/06 01:59:14;;;;;;;2.75;1.77;;;20.30;97.20;;;;;;6189457;23;20435;-84
2023/06/06 02:01:40;;;;;;;2.10;1.48;;;20.40;97.20;;;;;;6215762;23;20011;-84
2023/06/06 02:04:06;;;;;;;1.90;1.42;;;20.40;97.20;;;;;;6215939;23;20004;-83
2023/06/06 02:06:32;;;;;;;3.00;2.50;;;20.30;97.30;;;;;;6215744;23;20000;-83
2023/06/06 02:08:58;;;;;;;2.75;1.80;;;20.30;97.30;;;;;;6215736;23;20045;-84
2023/06/06 02:11:23;;;;;;;2.38;1.70;;;20.30;97.20;;;;;;6215486;23;20008;-85
2023/06/06 02:13:51;;;;;;;2.50;1.52;;;20.30;97.30;;;;;;6215478;23;20068;-85
2023/06/06 02:16:17;;;;;;;2.95;1.85;;;20.30;97.30;;;;;;6215991;23;20024;-85
2023/06/06 02:18:44;;;;;;;2.30;1.65;;;20.30;97.30;;;;;;6215579;23;20075;-85
2023/06/06 02:21:12;;;;;;;3.30;1.58;;;20.40;97.30;;;;;;6215365;23;20312;-85
2023/06/06 02:23:38;;;;;;;2.78;1.70;;;20.40;97.30;;;;;;6216388;23;20004;-86
2023/06/06 02:26:04;;;;;;;2.35;1.42;;;20.50;97.20;;;;;;6215926;23;20084;-85
2023/06/06 02:28:30;;;;;;;2.03;1.63;;;20.50;97.10;;;;;;6215815;23;20000;-86
2023/06/06 02:30:56;;;;;;;4.50;1.70;;;20.50;97.10;;;;;;6215470;23;20001;-85
2023/06/06 02:33:22;;;;;;;2.03;1.80;;;20.50;97.00;;;;;;6215277;23;20067;-85
2023/06/06 02:35:50;;;;;;;3.75;1.80;;;20.50;97.00;;;;;;6215555;23;20051;-85
2023/06/06 02:38:16;;;;;;;6.53;1.75;;;20.50;97.00;;;;;;6215633;23;20072;-86
2023/06/06 02:40:42;;;;;;;3.95;1.70;;;20.50;96.90;;;;;;6215073;23;20032;-86
2023/06/06 02:43:08;;;;;;;2.00;1.60;;;20.50;96.80;;;;;;6188734;23;20378;-85
2023/06/06 02:45:35;;;;;;;2.00;1.58;;;20.50;96.80;;;;;;6215361;23;20059;-85
2023/06/06 02:48:00;;;;;;;3.00;1.77;;;20.50;96.80;;;;;;6188476;23;20039;-86
2023/06/06 02:50:28;;;;;;;3.08;1.95;;;20.50;96.80;;;;;;6215580;23;20083;-85
2023/06/06 02:52:55;;;;;;;1.30;1.20;;;20.40;96.80;;;;;;6215441;23;20007;-85
2023/06/06 02:55:21;;;;;;;2.10;1.58;;;20.40;96.80;;;;;;6215463;23;20088;-86
2023/06/06 02:57:46;;;;;;;2.78;1.70;;;20.40;96.80;;;;;;6215613;23;19997;-87
2023/06/06 03:00:12;;;;;;;1.88;1.77;;;20.40;96.90;;;;;;6215255;23;20071;-86
2023/06/06 03:02:38;;;;;;;2.33;1.50;;;20.40;96.80;;;;;;6215306;23;20005;-87
2023/06/06 03:05:04;;;;;;;2.03;1.33;;;20.40;96.80;;;;;;6216316;23;20363;-88
2023/06/06 03:07:31;;;;;;;4.00;1.67;;;20.40;96.80;;;;;;6215630;23;20028;-88
2023/06/06 03:09:57;;;;;;;1.75;1.45;;;20.40;96.80;;;;;;6216099;23;20007;-88
2023/06/06 03:12:23;;;;;;;3.45;1.52;;;20.40;96.80;;;;;;6188418;23;20008;-86
2023/06/06 03:14:49;;;;;;;2.80;1.77;;;20.40;96.80;;;;;;6215302;23;20004;-86
2023/06/06 03:17:14;;;;;;;1.67;1.58;;;20.40;96.90;;;;;;6215188;23;20415;-86
2023/06/06 03:19:40;;;;;;;1.80;1.48;;;20.40;96.80;;;;;;6215569;23;20358;-86
2023/06/06 03:22:06;;;;;;;2.28;1.70;;;20.40;96.80;;;;;;6188973;23;20316;-85
2023/06/06 03:24:33;;;;;;;2.38;1.80;;;20.40;96.80;;;;;;6188798;23;20362;-86
2023/06/06 03:27:00;;;;;;;2.38;1.90;;;20.40;96.90;;;;;;6216757;23;20009;-84
2023/06/06 03:29:26;;;;;;;1.83;1.63;;;20.40;97.00;;;;;;6190844;23;20032;-85
2023/06/06 03:31:51;;;;;;;2.47;1.90;;;20.40;97.00;;;;;;6217299;23;20458;-84
2023/06/06 03:34:17;;;;;;;2.72;2.00;;;20.40;97.00;;;;;;6190868;23;20012;-85
2023/06/06 03:36:43;;;;;;;2.50;2.28;;;20.40;97.00;;;;;;6190946;23;20323;-83
2023/06/06 03:39:09;;;;;;;3.80;2.33;;;20.40;97.10;;;;;;6217423;23;20304;-83
2023/06/06 03:41:34;;;;;;;3.47;2.13;;;20.40;97.00;;;;;;6216727;23;20054;-83
2023/06/06 03:44:00;;;;;;;3.08;2.50;;;20.40;97.20;;;;;;6217644;23;20437;-85
2023/06/06 03:46:26;;;;;;;5.00;2.30;;;20.40;97.00;;;;;;6190196;23;20001;-82
2023/06/06 03:48:52;;;;;;;4.90;2.40;;;20.40;97.00;;;;;;6217148;23;20005;-83
2023/06/06 03:51:18;;;;;;;2.65;2.13;;;20.40;96.90;;;;;;6216770;23;20008;-82
2023/06/06 03:53:43;;;;;;;1.80;1.70;;;20.40;96.90;;;;;;6217106;23;20009;-82
2023/06/06 03:56:09;;;;;;;4.22;2.25;;;20.40;96.90;;;;;;6216918;23;20374;-83
2023/06/06 03:58:36;;;;;;;3.92;2.00;;;20.40;96.90;;;;;;6190139;23;20001;-83
2023/06/06 04:01:02;;;;;;;3.13;2.40;;;20.40;97.00;;;;;;6216988;23;20027;-83
2023/06/06 04:03:35;;;;;;;3.00;2.00;;;20.40;97.00;;;;;;6217133;23;20032;-84
2023/06/06 04:06:08;;;;;;;5.43;2.15;;;20.40;97.10;;;;;;6215764;23;20004;-85
2023/06/06 04:08:34;;;;;;;3.65;2.35;;;20.40;97.10;;;;;;6190718;23;20012;-86
2023/06/06 04:11:00;;;;;;;3.40;1.98;;;20.40;97.10;;;;;;6216327;23;20005;-85
2023/06/06 04:13:26;;;;;;;2.70;2.22;;;20.40;97.10;;;;;;6191154;23;20066;-93
2023/06/06 04:15:53;;;;;;;3.17;2.17;;;20.40;97.10;;;;;;6191347;23;20000;-85
2023/06/06 04:18:21;;;;;;;2.53;1.90;;;20.40;97.10;;;;;;6217061;23;20067;-82
2023/06/06 04:20:47;;;;;;;3.33;2.60;;;20.40;97.10;;;;;;6216144;23;20078;-82
2023/06/06 04:23:13;;;;;;;2.88;2.45;;;20.30;97.10;;;;;;6216976;23;20363;-83
2023/06/06 04:25:38;;;;;;;2.50;2.30;;;20.30;97.10;;;;;;6216808;23;20011;-83
2023/06/06 04:28:05;;;;;;;2.90;1.98;;;20.40;97.20;;;;;;6214088;23;20001;-82
2023/06/06 04:30:32;;;;;;;3.15;1.85;;;20.40;97.10;;;;;;6216227;23;20005;-83
2023/06/06 04:32:58;;;;;;;2.72;2.20;;;20.40;97.10;;;;;;6215653;23;20004;-83
2023/06/06 04:35:24;;;;;;;4.00;2.67;;;20.40;97.10;;;;;;6189353;23;20079;-83
2023/06/06 04:37:54;;;;;;;2.53;2.10;;;20.40;97.10;;;;;;6215833;23;20005;-83
2023/06/06 04:40:22;;;;;;;3.25;2.42;;;20.40;97.10;;;;;;6217293;23;20052;-83
2023/06/06 04:42:49;;;;;;;2.63;2.22;;;20.50;97.20;;;;;;6189587;23;20345;-84
2023/06/06 04:45:15;;;;;;;4.60;2.58;;;20.50;97.20;;;;;;6216639;23;20430;-84
2023/06/06 04:47:44;;;;;;;3.83;2.30;;;20.60;97.20;;;;;;6189813;23;20001;-85
2023/06/06 04:50:10;;;;;;;3.20;2.35;;;20.60;97.00;;;;;;6216091;23;20004;-89
2023/06/06 04:52:37;;;;;;;2.17;1.98;;;20.60;97.00;;;;;;6216280;23;20020;-88
2023/06/06 04:55:04;;;;;;;3.35;2.35;;;20.60;97.00;;;;;;6215716;23;20071;-86
2023/06/06 04:57:29;;;;;;;6.63;2.35;;;20.60;96.90;;;;;;6216418;23;20015;-87
2023/06/06 04:59:56;;;;;;;4.22;2.33;;;20.60;96.90;;;;;;6216634;23;20025;-85
2023/06/06 05:02:23;;;;;;;3.55;2.70;;;20.70;96.90;;;;;;6216656;23;20009;-86
2023/06/06 05:04:53;;;;;;;2.60;1.83;;;20.70;96.80;;;;;;6216232;23;20004;-86
2023/06/06 05:07:23;;;;;;;2.20;2.00;;;20.70;96.70;;;;;;6189965;23;20009;-86
2023/06/06 05:09:48;;;;;;;4.10;2.23;;;20.80;96.70;;;;;;6215858;23;20004;-86
2023/06/06 05:12:14;;;;;;;3.58;2.65;;;20.80;96.60;;;;;;6189182;23;20275;-86
2023/06/06 05:14:40;;;;;;;5.15;2.13;;;20.70;96.60;;;;;;6215010;23;19997;-87
2023/06/06 05:17:06;;;;;;;5.30;1.95;;;20.80;96.70;;;;;;6216647;23;20000;-87
2023/06/06 05:19:31;;;;;;;2.60;2.10;;;20.80;96.80;;;;;;6216369;23;19996;-87
2023/06/06 05:21:57;;;;;;;2.10;1.80;;;20.80;96.80;;;;;;6190175;23;20095;-88
2023/06/06 05:24:23;;;;;;;2.60;2.30;;;20.80;96.50;;;;;;6216375;23;20007;-87
2023/06/06 05:26:48;;;;;;;2.28;1.88;;;20.80;96.60;;;;;;6216577;23;20004;-88
2023/06/06 05:29:14;;;;;;;2.47;1.95;;;20.90;96.60;;;;;;6190024;23;20004;-87
2023/06/06 05:31:40;;;;;;;3.67;1.90;;;20.90;96.60;;;;;;6216884;23;20028;-88
2023/06/06 05:34:05;;;;;;;2.38;1.90;;;20.90;96.60;;;;;;6216504;23;20059;-87
2023/06/06 05:36:31;;;;;;;2.88;2.05;;;20.90;96.20;;;;;;6216902;23;20059;-87
2023/06/06 05:38:57;;;;;;;1.90;1.45;;;20.90;96.20;;;;;;6216531;23;20079;-87
2023/06/06 05:41:23;;;;;;;4.20;2.22;;;20.90;96.30;;;;;;6216457;23;20008;-87
2023/06/06 05:43:50;;;;;;;2.35;2.15;;;20.90;96.00;;;;;;6216400;23;20079;-88
2023/06/06 05:46:16;;;;;;;3.38;1.73;;;20.90;96.00;;;;;;6216484;23;20435;-87
2023/06/06 05:48:42;;;;;;;2.17;1.95;;;20.90;96.00;;;;;;6217480;23;20001;-95
2023/06/06 05:51:08;;;;;;;2.80;1.95;;;20.90;95.90;;;;;;6218560;23;20032;-95
2023/06/06 05:53:34;;;;;;;2.00;1.73;;;21.00;96.00;;;;;;6191169;23;20059;-94
2023/06/06 05:56:00;;;;;;;2.35;1.42;;;21.00;96.00;;;;;;6217351;23;20331;-96
2023/06/06 05:58:26;;;;;;;1.98;1.60;;;21.10;96.10;;;;;;6193050;23;20001;-96
2023/06/06 06:00:51;;;;;;;4.72;1.58;;;21.10;96.10;;;;;;6192769;23;20378;-96
2023/06/06 06:03:17;;;;;;;3.25;1.67;;;21.20;95.90;;;;;;6217036;23;20004;-92
2023/06/06 06:05:43;;;;;;;2.38;1.95;;;21.20;95.90;;;;;;6216412;23;20051;-94
2023/06/06 06:08:09;;;;;;;4.28;1.85;;;21.20;96.00;;;;;;6190664;23;20035;-94
2023/06/06 06:10:36;;;;;;;2.50;1.60;;;21.30;96.10;;;;;;6189629;23;20044;-94
2023/06/06 06:13:03;;;;;;;2.78;1.70;;;21.40;96.10;;;;;;6216225;23;20051;-93
2023/06/06 06:15:33;;;;;;;2.17;1.60;;;21.40;95.90;;;;;;6216452;23;19996;-93
2023/06/06 06:18:00;;;;;;;2.47;2.10;;;21.40;95.90;;;;;;6215243;23;19997;-93
2023/06/06 06:20:26;;;;;;;2.35;1.98;;;21.40;95.50;;;;;;6189749;23;20482;-92
2023/06/06 06:22:52;;;;;;;3.35;2.17;;;21.50;95.40;;;;;;6188922;23;20028;-92
2023/06/06 06:25:17;;;;;;;4.85;2.10;;;21.40;95.20;;;;;;6215690;23;20004;-91
2023/06/06 06:27:45;;;;;;;3.05;2.17;;;21.30;95.10;;;;;;6215998;23;20327;-91
2023/06/06 06:30:11;;;;;;;4.45;2.58;;;21.30;95.30;;;;;;6215587;23;20008;-91
2023/06/06 06:32:38;;;;;;;4.25;2.22;;;21.30;95.10;;;;;;6189113;23;20001;-91
2023/06/06 06:35:05;;;;;;;3.67;2.22;;;21.20;95.40;;;;;;6189411;23;20004;-92
2023/06/06 06:37:31;;;;;;;4.30;2.50;;;21.30;95.50;;;;;;6216463;23;20004;-88
2023/06/06 06:39:58;;;;;;;4.35;2.80;;;21.30;95.40;;;;;;6215519;23;20055;-93
2023/06/06 06:42:25;;;;;;;2.60;2.17;;;21.30;95.40;;;;;;6216998;23;20075;-94
2023/06/06 06:44:51;;;;;;;2.70;1.90;;;21.30;95.30;;;;;;6189350;23;20008;-93
2023/06/06 06:47:17;;;;;;;4.18;2.38;;;21.40;95.30;;;;;;6189129;23;20083;-93
2023/06/06 06:49:42;;;;;;;2.40;1.80;;;21.40;95.30;;;;;;6189614;23;20005;-93
2023/06/06 06:52:15;;;;;;;2.38;1.75;;;21.40;95.20;;;;;;6189147;23;20079;-93
2023/06/06 06:54:53;;;;;;;2.20;1.90;;;21.50;95.30;;;;;;6189056;23;20016;-96
2023/06/06 06:57:20;;;;;;;2.58;1.63;;;21.60;95.10;;;;;;6216304;23;20005;-93
2023/06/06 06:59:46;;;;;;;2.00;1.80;;;21.70;95.00;;;;;;6216010;23;19997;-86
2023/06/06 07:02:12;;;;;;;4.45;2.35;;;21.80;95.00;;;;;;6215126;23;20012;-85
2023/06/06 07:04:39;;;;;;;2.45;2.10;;;21.90;94.60;;;;;;6214643;23;20329;-85
2023/06/06 07:07:06;;;;;;;3.63;1.83;;;21.90;94.10;;;;;;6188337;23;20011;-86
2023/06/06 07:09:31;;;;;;;3.78;2.35;;;21.90;94.10;;;;;;6188714;23;20009;-85
2023/06/06 07:11:57;;;;;;;4.22;2.45;;;21.80;94.20;;;;;;6188288;23;20447;-86
2023/06/06 07:14:25;;;;;;;3.90;2.00;;;21.70;94.20;;;;;;6214744;23;20382;-85
2023/06/06 07:16:51;;;;;;;4.70;2.20;;;21.70;94.40;;;;;;6188393;23;20473;-85
2023/06/06 07:19:16;;;;;;;2.00;1.50;;;21.70;94.60;;;;;;6189090;23;20091;-85
2023/06/06 07:21:42;;;;;;;5.18;2.33;;;21.70;94.70;;;;;;6215563;23;20001;-85
2023/06/06 07:24:08;;;;;;;7.15;2.25;;;21.70;94.50;;;;;;6188943;23;20008;-85
2023/06/06 07:26:34;;;;;;;2.00;1.80;;;21.70;94.40;;;;;;6213713;23;20009;-85
2023/06/06 07:29:03;;;;;;;4.28;1.98;;;21.70;94.50;;;;;;6214932;23;20011;-85
2023/06/06 07:31:30;;;;;;;2.73;1.80;;;21.70;94.60;;;;;;6215218;23;20008;-86
2023/06/06 07:33:56;;;;;;;1.70;1.55;;;21.70;94.60;;;;;;6189064;23;20004;-86
2023/06/06 07:36:21;;;;;;;2.90;1.65;;;21.70;94.70;;;;;;6187935;23;20059;-85
2023/06/06 07:38:47;;;;;;;2.10;1.83;;;21.70;94.90;;;;;;6188558;23;20039;-92
2023/06/06 07:41:13;;;;;;;4.68;1.90;;;21.90;95.00;;;;;;6188741;23;20004;-92
2023/06/06 07:43:41;;;;;;;2.88;2.00;;;21.90;94.30;;;;;;6215732;23;20015;-93
2023/06/06 07:46:07;;;;;;;2.58;1.77;;;21.90;94.00;;;;;;6215369;23;20539;-92
2023/06/06 07:48:33;;;;;;;3.92;2.00;;;22.00;94.20;;;;;;6214816;23;20000;-92
2023/06/06 07:50:58;;;;;;;2.13;1.77;;;22.10;94.20;;;;;;6190500;23;20055;-93
2023/06/06 07:53:24;;;;;;;2.15;1.65;;;22.20;94.10;;;;;;6215967;23;20000;-94
2023/06/06 07:55:50;;;;;;;3.00;2.10;;;22.30;93.80;;;;;;6189205;23;20087;-94
2023/06/06 07:58:17;;;;;;;1.50;1.40;;;22.30;93.30;;;;;;6215796;23;20327;-94
2023/06/06 08:00:44;;;;;;;2.70;2.10;;;22.40;93.70;;;;;;6189936;23;20087;-94
2023/06/06 08:03:14;;;;;;;4.30;1.98;;;22.40;93.00;;;;;;6216329;23;20055;-94
2023/06/06 08:05:40;;;;;;;3.08;2.10;;;22.40;93.10;;;;;;6216414;23;20028;-94
2023/06/06 08:08:06;;;;;;;2.22;1.63;;;22.50;92.80;;;;;;6216237;23;20001;-94
2023/06/06 08:10:32;;;;;;;4.38;1.88;;;22.50;92.70;;;;;;6215699;23;20004;-94
2023/06/06 08:13:00;;;;;;;4.13;2.22;;;22.50;92.50;;;;;;6191185;23;20008;-94
2023/06/06 08:15:25;;;;;;;2.22;1.70;;;22.50;92.30;;;;;;6217679;23;20001;-93
2023/06/06 08:17:51;;;;;;;1.80;1.70;;;22.50;92.70;;;;;;6190984;23;20327;-94
2023/06/06 08:20:17;;;;;;;1.75;1.60;;;22.50;92.40;;;;;;6190491;23;20052;-94
2023/06/06 08:22:52;;;;;;;2.92;2.00;;;22.50;92.30;;;;;;6190802;23;20004;-93
2023/06/06 08:25:18;;;;;;;1.48;1.38;;;22.60;92.20;;;;;;6191092;23;20008;-93
2023/06/06 08:27:44;;;;;;;2.42;1.45;;;22.60;92.30;;;;;;6190758;23;20024;-93
2023/06/06 08:30:10;;;;;;;2.22;2.00;;;22.70;92.10;;;;;;6217113;23;20001;-93
2023/06/06 08:32:37;;;;;;;3.05;1.48;;;22.70;92.10;;;;;;6217014;23;20007;-92
2023/06/06 08:35:03;;;;;;;2.83;2.15;;;22.70;91.80;;;;;;6190575;23;20005;-93
2023/06/06 08:37:30;;;;;;;2.42;1.92;;;22.80;91.60;;;;;;6216858;23;19997;-94
2023/06/06 08:39:56;;;;;;;3.05;1.90;;;22.90;91.90;;;;;;6217663;23;20005;-94
2023/06/06 08:42:24;;;;;;;3.03;2.10;;;22.80;91.70;;;;;;6217590;23;20004;-93
2023/06/06 08:44:52;;;;;;;1.48;1.20;;;22.90;91.90;;;;;;6217012;23;20000;-93
2023/06/06 08:47:19;;;;;;;1.77;1.65;;;23.00;91.90;;;;;;6190756;23;20036;-93
2023/06/06 08:49:45;;;;;;;2.50;1.88;;;23.00;91.40;;;;;;6217034;23;20028;-94
2023/06/06 08:52:13;;;;;;;8.45;1.70;;;23.00;91.50;;;;;;6217190;23;20431;-94
2023/06/06 08:54:40;;;;;;;2.63;1.75;;;23.10;91.70;;;;;;6217135;23;20005;-94
2023/06/06 08:57:11;;;;;;;1.75;1.63;;;23.20;91.70;;;;;;6217298;23;20004;-95
2023/06/06 08:59:38;;;;;;;2.25;1.85;;;23.30;91.70;;;;;;6216790;23;20008;-95
2023/06/06 09:02:08;;;;;;;2.10;1.60;;;23.40;91.20;;;;;;6190527;23;20004;-94
2023/06/06 09:04:34;;;;;;;2.33;1.60;;;23.40;90.80;;;;;;6216682;23;20494;-92
2023/06/06 09:07:11;;;;;;;2.28;1.83;;;23.30;90.70;;;;;;6215961;23;20005;-93
2023/06/06 09:09:38;;;;;;;2.53;2.05;;;23.10;90.60;;;;;;6217176;23;20431;-93
2023/06/06 09:12:06;;;;;;;1.80;1.33;;;23.00;91.00;;;;;;6217138;23;20080;-93
2023/06/06 09:14:32;;;;;;;4.15;1.80;;;22.90;91.10;;;;;;6217303;23;20003;-93
2023/06/06 09:16:59;;;;;;;2.67;1.70;;;23.00;91.30;;;;;;6216936;23;20072;-92
2023/06/06 09:19:25;;;;;;;2.67;1.85;;;23.10;91.60;;;;;;6191287;23;20001;-85
2023/06/06 09:21:51;;;;;;;1.80;1.60;;;23.30;91.10;;;;;;6189874;23;20016;-84
2023/06/06 09:24:17;;;;;;;2.67;2.13;;;23.30;91.00;;;;;;6216456;23;20005;-85
2023/06/06 09:26:43;;;;;;;2.50;2.20;;;23.30;90.30;;;;;;6216872;23;20000;-85
2023/06/06 09:29:11;;;;;;;2.13;1.58;;;23.30;90.00;;;;;;6190338;23;20330;-86
2023/06/06 09:31:38;;;;;;;3.20;1.48;;;23.30;90.40;;;;;;6216848;23;20285;-85
2023/06/06 09:34:06;;;;;;;1.90;1.50;;;23.30;90.40;;;;;;6188757;23;20083;-85
2023/06/06 09:36:32;;;;;;;2.88;2.17;;;23.50;90.60;;;;;;6215486;23;20005;-85
2023/06/06 09:39:15;;;;;;;2.67;2.25;;;23.50;90.20;;;;;;6216154;23;20035;-85
2023/06/06 09:41:47;;;;;;;3.15;2.13;;;23.50;90.40;;;;;;6215962;23;20056;-85
2023/06/06 09:44:24;;;;;;;1.98;1.77;;;23.60;90.50;;;;;;6189154;23;20370;-85
2023/06/06 09:47:08;;;;;;;2.75;1.80;;;23.80;90.60;;;;;;6189878;23;20009;-86
2023/06/06 09:49:34;;;;;;;3.15;1.90;;;23.90;90.60;;;;;;6216516;23;20005;-85
2023/06/06 09:51:59;;;;;;;3.72;1.70;;;24.10;90.60;;;;;;6215982;23;20076;-87
2023/06/06 09:54:26;;;;;;;2.75;1.83;;;24.40;90.40;;;;;;6206660;23;20044;-86
2023/06/06 09:56:52;;;;;;;2.47;1.70;;;24.60;90.10;;;;;;6160463;23;20029;-86
2023/06/06 09:59:24;;;;;;;2.58;2.00;;;24.80;90.00;;;;;;6186370;23;20007;-86
2023/06/06 10:01:53;;;;;;;1.98;1.65;;;25.00;89.50;;;;;;6159960;23;20031;-87
2023/06/06 10:04:19;;;;;;;2.50;1.55;;;25.30;89.10;;;;;;6185644;23;20004;-87
2023/06/06 10:06:46;;;;;;;1.70;1.30;;;25.40;88.60;;;;;;6158588;23;20044;-86
2023/06/06 10:09:12;;;;;;;1.50;1.40;;;25.60;88.00;;;;;;6187226;23;20083;-92
2023/06/06 10:11:39;;;;;;;1.65;1.55;;;25.80;87.10;;;;;;6186534;23;20056;-91
2023/06/06 10:14:06;;;;;;;1.40;1.20;;;25.90;86.50;;;;;;6185773;23;19997;-91
2023/06/06 10:16:35;;;;;;;1.45;1.35;;;26.00;84.70;;;;;;6159478;23;20032;-91
2023/06/06 10:19:01;;;;;;;2.75;1.73;;;26.10;83.30;;;;;;6185896;23;20327;-86
2023/06/06 10:21:28;;;;;;;1.25;1.15;;;26.10;83.60;;;;;;6159055;23;20016;-86
2023/06/06 10:23:54;;;;;;;1.60;1.50;;;26.30;84.20;;;;;;6185550;23;20001;-86
2023/06/06 10:26:26;;;;;;;2.20;1.20;;;26.40;84.00;;;;;;6160084;23;20008;-86
2023/06/06 10:29:13;;;;;;;1.70;1.42;;;26.50;82.50;;;;;;6159626;23;20005;-86
2023/06/06 10:31:55;;;;;;;1.98;1.20;;;26.70;81.60;;;;;;6158951;23;20012;-89
2023/06/06 10:34:25;;;;;;;1.25;1.15;;;26.80;81.90;;;;;;6185120;23;20020;-89
2023/06/06 10:36:51;;;;;;;1.50;1.40;;;26.90;81.90;;;;;;6185324;23;20005;-89
2023/06/06 10:39:22;;;;;;;2.95;1.70;;;26.90;80.00;;;;;;6185527;23;20008;-89
2023/06/06 10:42:07;;;;;;;1.55;1.30;;;27.00;81.60;;;;;;6159101;23;20013;-88
2023/06/06 10:44:41;;;;;;;1.60;1.50;;;27.10;80.70;;;;;;6185338;23;20001;-89
2023/06/06 10:47:27;;;;;;;1.38;1.17;;;27.30;81.40;;;;;;6159044;23;20016;-87
2023/06/06 10:50:08;;;;;;;1.35;1.20;;;27.50;80.50;;;;;;6159285;23;20398;-88
2023/06/06 10:52:58;;;;;;;1.73;1.40;;;27.70;79.10;;;;;;6185004;23;20545;-87
2023/06/06 10:55:23;;;;;;;1.25;1.15;;;27.80;78.50;;;;;;6185230;23;20063;-88
2023/06/06 10:58:04;;;;;;;2.53;1.20;;;27.90;78.20;;;;;;6184811;23;20028;-88
2023/06/06 11:00:35;;;;;;;0.85;0.85;;;28.10;78.30;;;;;;6184819;23;20048;-91
2023/06/06 11:03:07;;;;;;;1.42;1.13;;;28.30;77.50;;;;;;6158655;23;20011;-87
2023/06/06 11:05:53;;;;;;;1.40;1.30;;;28.30;77.70;;;;;;6185159;23;20001;-86
2023/06/06 11:08:30;;;;;;;1.60;1.50;;;28.40;77.50;;;;;;6184652;23;20001;-87
2023/06/06 11:11:13;;;;;;;3.60;1.50;;;28.30;77.00;;;;;;6183873;23;20080;-87
2023/06/06 11:13:53;;;;;;;1.95;1.40;;;28.20;75.90;;;;;;6185546;23;20004;-87
2023/06/06 11:16:40;;;;;;;2.28;1.38;;;27.90;76.40;;;;;;6185453;23;20001;-86
2023/06/06 11:19:08;;;;;;;1.20;1.10;;;27.70;75.90;;;;;;6185088;23;20011;-87
2023/06/06 11:21:41;;;;;;;1.38;1.27;;;27.50;77.10;;;;;;6185295;23;20373;-86
2023/06/06 11:24:08;;;;;;;2.97;1.60;;;27.20;77.50;;;;;;6185102;23;20001;-86
2023/06/06 11:26:35;;;;;;;2.38;1.40;;;27.10;77.90;;;;;;6186388;23;20009;-87
2023/06/06 11:29:02;;;;;;;2.58;1.60;;;27.00;78.50;;;;;;6185476;23;20005;-87
2023/06/06 11:31:28;;;;;;;1.65;1.55;;;26.80;78.30;;;;;;6188880;23;20032;-89
2023/06/06 11:34:12;;;;;;;2.30;1.67;;;26.60;79.00;;;;;;6195551;23;20055;-90
2023/06/06 11:36:40;;;;;;;2.00;1.80;;;26.50;79.50;;;;;;6187688;23;20076;-91
2023/06/06 11:39:10;;;;;;;2.22;1.60;;;26.30;79.70;;;;;;6196142;23;20483;-89
2023/06/06 11:41:44;;;;;;;2.63;1.70;;;26.20;79.90;;;;;;6160466;23;20016;-84
2023/06/06 11:44:10;;;;;;;1.73;1.63;;;26.10;80.50;;;;;;6183356;23;20009;-84
2023/06/06 11:46:54;;;;;;;1.98;1.50;;;26.00;81.40;;;;;;6184257;23;20380;-84
2023/06/06 11:49:21;;;;;;;1.88;1.55;;;25.90;80.60;;;;;;6160092;23;20012;-84
2023/06/06 11:52:01;;;;;;;1.92;1.38;;;25.90;80.40;;;;;;6159827;23;20009;-84
2023/06/06 11:54:30;;;;;;;1.58;1.38;;;25.80;80.20;;;;;;6187402;23;20005;-84
2023/06/06 11:57:02;;;;;;;1.50;1.35;;;25.70;80.60;;;;;;6187200;23;20001;-84
2023/06/06 11:59:28;;;;;;;5.20;1.80;;;25.60;81.10;;;;;;6160625;23;20128;-84
2023/06/06 12:01:58;;;;;;;4.22;2.70;;;25.50;82.30;;;;;;6159572;23;20013;-84
2023/06/06 12:04:25;;;;;;;4.53;2.50;;;25.40;85.70;;;;;;6159376;23;20009;-85
2023/06/06 12:06:57;;;;;;;3.53;2.40;;;25.30;85.60;;;;;;6158887;23;20035;-86
2023/06/06 12:09:26;;;;;;;2.17;1.55;;;25.10;88.80;;;;;;6158994;23;20257;-87
2023/06/06 12:12:04;;;;;;;3.28;1.40;;;25.00;88.60;;;;;;6187768;23;20013;-92
2023/06/06 12:14:32;;;;;;;1.70;1.40;;;24.80;90.20;;;;;;6169135;23;20028;-93
2023/06/06 12:17:05;;;;;;;2.13;1.45;;;24.80;90.20;;;;;;6196698;23;20388;-93
2023/06/06 12:19:32;;;;;;;4.05;1.70;;;24.70;90.70;;;;;;6199993;23;20005;-94
2023/06/06 12:21:58;;;;;;;1.88;1.77;;;24.60;90.80;;;;;;6159930;23;20506;-88
2023/06/06 12:24:29;;;;;;;2.83;1.38;;;24.50;90.90;;;;;;6185144;23;20005;-88
2023/06/06 12:26:59;;;;;;;2.38;1.85;;;24.40;91.00;;;;;;6186905;23;20032;-88
2023/06/06 12:29:35;;;;;;;2.65;2.20;;;24.30;91.30;;;;;;6155898;23;20032;-87
2023/06/06 12:32:25;;;;;;;3.88;1.92;;;24.20;91.80;;;;;;6184156;23;20001;-87
2023/06/06 12:35:02;;;;;;;6.22;2.10;;;24.10;91.80;;;;;;6177227;23;20001;-87
2023/06/06 12:37:43;;;;;;;4.03;2.05;;;24.00;91.60;;;;;;6173639;23;20012;-87
2023/06/06 12:40:18;;;;;;;2.22;1.40;;;23.80;91.70;;;;;;6194410;23;20002;-88
2023/06/06 12:42:56;;;;;;;2.72;1.83;;;23.60;91.80;;;;;;6164885;23;20012;-87
2023/06/06 12:45:24;;;;;;;1.95;1.75;;;23.50;92.00;;;;;;6191934;23;20079;-87
2023/06/06 12:47:59;;;;;;;2.47;2.03;;;23.30;92.10;;;;;;6191249;23;20013;-87
2023/06/06 12:50:25;;;;;;;3.47;2.33;;;23.10;92.30;;;;;;6163505;23;20060;-87
2023/06/06 12:52:51;;;;;;;2.70;1.80;;;23.00;92.80;;;;;;6187294;23;20005;-87